Time;durP1;ratioP1;P1;durP2;ratioP2;P2;SDS_P1;SDS_P2;PMS_P1;PMS_P2;Temp;Humidity;BMP_temperature;BMP_pressure;BME280_temperature;BME280_humidity;BME280_pressure;Samples;Min_cycle;Max_cycle;Signal;HPM_P1;HPM_P2
2021/11/14 00:00:26;;;;;;;;;;;;;;;;;;2222620;66;1220;-71
2021/11/14 00:03:01;;;;;;;;;;;;;;;;;;2222515;58;2113;-71
2021/11/14 00:05:34;;;;;;;;;;;;;;;;;;2222211;58;2399;-71
2021/11/14 00:08:08;;;;;;;;;;;;;;;;;;2223468;58;2382;-71
2021/11/14 00:10:42;;;;;;;;;;;;;;;;;;2222370;58;1931;-71
2021/11/14 00:13:15;;;;;;;;;;;;;;;;;;2222043;58;1391;-71
2021/11/14 00:15:51;;;;;;;;;;;;;;;;;;2222905;58;1178;-71
2021/11/14 00:18:25;;;;;;;;;;;;;;;;;;2222320;58;1881;-71
2021/11/14 00:20:58;;;;;;;;;;;;;;;;;;2221959;58;1514;-71
2021/11/14 00:23:31;;;;;;;;;;;;;;;;;;2221933;58;2159;-71
2021/11/14 00:26:05;;;;;;;;;;;;;;;;;;2221307;58;1127;-71
2021/11/14 00:28:39;;;;;;;;;;;;;;;;;;2221927;58;1275;-71
2021/11/14 00:31:16;;;;;;;;;;;;;;;;;;2220921;58;1984;-71
2021/11/14 00:33:50;;;;;;;;;;;;;;;;;;2222656;58;1248;-71
2021/11/14 00:36:25;;;;;;;;;;;;;;;;;;2222469;58;2111;-71
2021/11/14 00:38:59;;;;;;;;;;;;;;;;;;2221723;58;1319;-71
2021/11/14 00:41:32;;;;;;;;;;;;;;;;;;2222280;58;1255;-71
2021/11/14 00:44:05;;;;;;;;;;;;;;;;;;2221730;58;1367;-71
2021/11/14 00:46:41;;;;;;;;;;;;;;;;;;2222067;58;1381;-71
2021/11/14 00:49:14;;;;;;;;;;;;;;;;;;2222191;58;1995;-71
2021/11/14 00:51:48;;;;;;;;;;;;;;;;;;2223268;58;1192;-71
2021/11/14 00:54:21;;;;;;;;;;;;;;;;;;2222467;58;1206;-71
2021/11/14 00:56:54;;;;;;;;;;;;;;;;;;2221497;58;2133;-71
2021/11/14 00:59:27;;;;;;;;;;;;;;;;;;2222557;58;1257;-71
2021/11/14 01:02:03;;;;;;;;;;;;;;;;;;2223365;58;2151;-71
2021/11/14 01:04:36;;;;;;;;;;;;;;;;;;2220749;58;1187;-71
2021/11/14 01:07:09;;;;;;;;;;;;;;;;;;2222973;58;1545;-71
2021/11/14 01:09:43;;;;;;;;;;;;;;;;;;2222293;58;1974;-72
2021/11/14 01:12:16;;;;;;;;;;;;;;;;;;2222113;58;1552;-71
2021/11/14 01:14:49;;;;;;;;;;;;;;;;;;2221701;58;1346;-71
2021/11/14 01:17:25;;;;;;;;;;;;;;;;;;2221449;58;2846;-71
2021/11/14 01:19:59;;;;;;;;;;;;;;;;;;2217132;58;2483;-71
2021/11/14 01:22:32;;;;;;;;;;;;;;;;;;2221214;58;1394;-71
2021/11/14 01:25:06;;;;;;;;;;;;;;;;;;2222232;58;1380;-71
2021/11/14 01:27:39;;;;;;;;;;;;;;;;;;2223419;58;1317;-71
2021/11/14 01:30:14;;;;;;;;;;;;;;;;;;2221715;58;1990;-71
2021/11/14 01:32:50;;;;;;;;;;;;;;;;;;2222273;58;1374;-71
2021/11/14 01:35:23;;;;;;;;;;;;;;;;;;2221922;58;1414;-71
2021/11/14 01:37:58;;;;;;;;;;;;;;;;;;2222926;58;1309;-71
2021/11/14 01:40:33;;;;;;;;;;;;;;;;;;2222054;58;1579;-71
2021/11/14 01:43:07;;;;;;;;;;;;;;;;;;2223258;58;1288;-71
2021/11/14 01:45:41;;;;;;;;;;;;;;;;;;2221925;58;1504;-71
2021/11/14 01:48:17;;;;;;;;;;;;;;;;;;2222815;58;1320;-71
2021/11/14 01:50:51;;;;;;;;;;;;;;;;;;2221561;58;1986;-71
2021/11/14 01:53:24;;;;;;;;;;;;;;;;;;2223280;58;2328;-71
2021/11/14 01:55:58;;;;;;;;;;;;;;;;;;2217293;58;1234;-71
2021/11/14 01:58:31;;;;;;;;;;;;;;;;;;2223375;58;2774;-71
2021/11/14 02:01:08;;;;;;;;;;;;;;;;;;2221902;58;1255;-71
2021/11/14 02:08:57;;;;;;;;;;;;;;;;;;2216729;58;1283;-70
2021/11/14 02:11:31;;;;;;;;;;;;;;;;;;2222628;58;1947;-70
2021/11/14 02:14:04;;;;;;;;;;;;;;;;;;2222711;58;1282;-70
2021/11/14 02:16:38;;;;;;;;;;;;;;;;;;2223028;58;1377;-69
2021/11/14 02:19:12;;;;;;;;;;;;;;;;;;2216720;53;3589;-70
2021/11/14 02:21:48;;;;;;;;;;;;;;;;;;2208713;59;1451;-69
2021/11/14 02:24:21;;;;;;;;;;;;;;;;;;2206816;59;1316;-70
2021/11/14 02:26:54;;;;;;;;;;;;;;;;;;2206273;59;1364;-70
2021/11/14 02:29:28;;;;;;;;;;;;;;;;;;2206537;59;1413;-69
2021/11/14 02:32:01;;;;;;;;;;;;;;;;;;2205753;59;1967;-69
2021/11/14 02:34:34;;;;;;;;;;;;;;;;;;2205891;58;2211;-70
2021/11/14 02:37:10;;;;;;;;;;;;;;;;;;2206114;59;1507;-70
2021/11/14 02:39:44;;;;;;;;;;;;;;;;;;2205438;59;1451;-70
2021/11/14 02:42:17;;;;;;;;;;;;;;;;;;2205457;59;1228;-70
2021/11/14 02:44:50;;;;;;;;;;;;;;;;;;2205795;59;1510;-70
2021/11/14 02:47:23;;;;;;;;;;;;;;;;;;2206199;58;2871;-71
2021/11/14 02:49:56;;;;;;;;;;;;;;;;;;2207250;58;2105;-69
2021/11/14 02:52:32;;;;;;;;;;;;;;;;;;2208231;59;2938;-70
2021/11/14 02:55:06;;;;;;;;;;;;;;;;;;2206571;59;1186;-70
2021/11/14 02:57:39;;;;;;;;;;;;;;;;;;2206402;59;2339;-70
2021/11/14 03:00:14;;;;;;;;;;;;;;;;;;2207413;59;1573;-69
2021/11/14 03:02:47;;;;;;;;;;;;;;;;;;2206940;58;1372;-69
2021/11/14 03:05:21;;;;;;;;;;;;;;;;;;2206730;59;1427;-69
2021/11/14 03:07:58;;;;;;;;;;;;;;;;;;2206912;59;1377;-70
2021/11/14 03:10:32;;;;;;;;;;;;;;;;;;2207620;59;1923;-69
2021/11/14 03:13:06;;;;;;;;;;;;;;;;;;2205277;59;1396;-69
2021/11/14 03:15:41;;;;;;;;;;;;;;;;;;2207022;59;1256;-69
2021/11/14 03:18:15;;;;;;;;;;;;;;;;;;2207323;58;1385;-70
2021/11/14 03:20:49;;;;;;;;;;;;;;;;;;2207410;59;1323;-70
2021/11/14 03:23:26;;;;;;;;;;;;;;;;;;2207678;59;1354;-69
2021/11/14 03:26:00;;;;;;;;;;;;;;;;;;2207694;58;2102;-69
2021/11/14 03:28:34;;;;;;;;;;;;;;;;;;2206303;59;1399;-69
2021/11/14 03:31:08;;;;;;;;;;;;;;;;;;2206820;58;2262;-69
2021/11/14 03:33:41;;;;;;;;;;;;;;;;;;2210689;58;1348;-69
2021/11/14 03:36:16;;;;;;;;;;;;;;;;;;2208141;59;2159;-69
2021/11/14 03:38:53;;;;;;;;;;;;;;;;;;2206818;59;1290;-69
2021/11/14 03:41:27;;;;;;;;;;;;;;;;;;2207233;59;1317;-69
2021/11/14 03:44:01;;;;;;;;;;;;;;;;;;2207051;59;1283;-69
2021/11/14 03:46:34;;;;;;;;;;;;;;;;;;2205706;59;1491;-69
2021/11/14 03:49:08;;;;;;;;;;;;;;;;;;2205350;59;2217;-69
2021/11/14 03:51:41;;;;;;;;;;;;;;;;;;2206679;58;1985;-69
2021/11/14 03:54:17;;;;;;;;;;;;;;;;;;2208020;58;1189;-69
2021/11/14 03:56:51;;;;;;;;;;;;;;;;;;2206833;59;1141;-69
2021/11/14 03:59:24;;;;;;;;;;;;;;;;;;2205808;59;2033;-69
2021/11/14 04:01:57;;;;;;;;;;;;;;;;;;2205937;58;2782;-69
2021/11/14 04:04:30;;;;;;;;;;;;;;;;;;2205524;59;2891;-69
2021/11/14 04:07:03;;;;;;;;;;;;;;;;;;2205777;58;2109;-69
2021/11/14 04:09:39;;;;;;;;;;;;;;;;;;2204450;59;2065;-70
2021/11/14 04:12:13;;;;;;;;;;;;;;;;;;2205698;59;2069;-69
2021/11/14 04:14:46;;;;;;;;;;;;;;;;;;2204989;59;1179;-69
2021/11/14 04:17:19;;;;;;;;;;;;;;;;;;2207820;58;2156;-69
2021/11/14 04:19:52;;;;;;;;;;;;;;;;;;2205680;59;2269;-69
2021/11/14 04:22:25;;;;;;;;;;;;;;;;;;2206214;59;1322;-69
2021/11/14 04:25:01;;;;;;;;;;;;;;;;;;2205868;59;1406;-69
2021/11/14 04:27:34;;;;;;;;;;;;;;;;;;2206776;59;1548;-69
2021/11/14 04:30:08;;;;;;;;;;;;;;;;;;2206023;59;1292;-69
2021/11/14 04:32:41;;;;;;;;;;;;;;;;;;2206948;59;1928;-69
2021/11/14 04:35:15;;;;;;;;;;;;;;;;;;2205989;59;2316;-69
2021/11/14 04:37:49;;;;;;;;;;;;;;;;;;2206401;59;1465;-69
2021/11/14 04:40:26;;;;;;;;;;;;;;;;;;2207052;59;1255;-69
2021/11/14 04:42:59;;;;;;;;;;;;;;;;;;2206033;59;1268;-69
2021/11/14 04:45:33;;;;;;;;;;;;;;;;;;2206535;59;1306;-69
2021/11/14 04:48:06;;;;;;;;;;;;;;;;;;2207027;59;2157;-69
2021/11/14 04:50:40;;;;;;;;;;;;;;;;;;2206569;58;1926;-69
2021/11/14 04:53:14;;;;;;;;;;;;;;;;;;2206281;59;1844;-69
2021/11/14 04:55:49;;;;;;;;;;;;;;;;;;2206216;59;1286;-69
2021/11/14 04:58:23;;;;;;;;;;;;;;;;;;2206176;59;1493;-69
2021/11/14 05:00:56;;;;;;;;;;;;;;;;;;2206188;59;1571;-69
2021/11/14 05:03:29;;;;;;;;;;;;;;;;;;2206250;59;1236;-69
2021/11/14 05:06:02;;;;;;;;;;;;;;;;;;2206590;58;1772;-69
2021/11/14 05:08:35;;;;;;;;;;;;;;;;;;2202340;59;1431;-69
2021/11/14 05:11:11;;;;;;;;;;;;;;;;;;2205890;59;1993;-69
2021/11/14 05:13:44;;;;;;;;;;;;;;;;;;2206077;59;1245;-69
2021/11/14 05:16:17;;;;;;;;;;;;;;;;;;2208309;59;1133;-69
2021/11/14 05:18:50;;;;;;;;;;;;;;;;;;2206291;59;1420;-69
2021/11/14 05:21:24;;;;;;;;;;;;;;;;;;2205595;59;1625;-69
2021/11/14 05:23:57;;;;;;;;;;;;;;;;;;2205273;58;1689;-69
2021/11/14 05:26:33;;;;;;;;;;;;;;;;;;2203883;59;1703;-70
2021/11/14 05:29:06;;;;;;;;;;;;;;;;;;2204632;59;1439;-69
2021/11/14 05:31:39;;;;;;;;;;;;;;;;;;2205006;59;1925;-69
2021/11/14 05:34:12;;;;;;;;;;;;;;;;;;2206348;59;1073;-69
2021/11/14 05:36:46;;;;;;;;;;;;;;;;;;2206369;59;1248;-69
2021/11/14 05:39:19;;;;;;;;;;;;;;;;;;2205880;59;1276;-69
2021/11/14 05:41:55;;;;;;;;;;;;;;;;;;2206586;59;1437;-69
2021/11/14 05:44:28;;;;;;;;;;;;;;;;;;2206574;59;1250;-69
2021/11/14 05:47:01;;;;;;;;;;;;;;;;;;2206349;59;1445;-69
2021/11/14 05:49:35;;;;;;;;;;;;;;;;;;2205326;59;1322;-69
2021/11/14 05:52:08;;;;;;;;;;;;;;;;;;2205534;59;1925;-69
2021/11/14 05:54:41;;;;;;;;;;;;;;;;;;2206773;59;1267;-69
2021/11/14 05:57:17;;;;;;;;;;;;;;;;;;2207092;59;1513;-69
2021/11/14 05:59:58;;;;;;;;;;;;;;;;;;2206580;59;1527;-70
2021/11/14 06:02:38;;;;;;;;;;;;;;;;;;2206555;59;1241;-69
2021/11/14 06:05:17;;;;;;;;;;;;;;;;;;2206391;59;1510;-69
2021/11/14 06:07:50;;;;;;;;;;;;;;;;;;2206716;59;1507;-69
2021/11/14 06:10:23;;;;;;;;;;;;;;;;;;2206428;59;1222;-69
2021/11/14 06:12:59;;;;;;;;;;;;;;;;;;2205719;59;1932;-69
2021/11/14 06:15:33;;;;;;;;;;;;;;;;;;2205009;59;1773;-69
2021/11/14 06:18:06;;;;;;;;;;;;;;;;;;2206203;59;1622;-69
2021/11/14 06:20:39;;;;;;;;;;;;;;;;;;2204846;59;1717;-69
2021/11/14 06:23:13;;;;;;;;;;;;;;;;;;2206781;59;1524;-70
2021/11/14 06:25:46;;;;;;;;;;;;;;;;;;2205016;59;1306;-69
2021/11/14 06:28:22;;;;;;;;;;;;;;;;;;2206713;59;1799;-69
2021/11/14 06:30:55;;;;;;;;;;;;;;;;;;2206139;59;1993;-69
2021/11/14 06:33:28;;;;;;;;;;;;;;;;;;2206211;59;1248;-69
2021/11/14 06:36:01;;;;;;;;;;;;;;;;;;2206614;59;1272;-69
2021/11/14 06:38:34;;;;;;;;;;;;;;;;;;2206140;59;1416;-69
2021/11/14 06:41:07;;;;;;;;;;;;;;;;;;2206992;59;1443;-69
2021/11/14 06:43:43;;;;;;;;;;;;;;;;;;2206622;59;1269;-69
2021/11/14 06:46:16;;;;;;;;;;;;;;;;;;2206467;59;1263;-69
2021/11/14 06:48:50;;;;;;;;;;;;;;;;;;2206910;59;1191;-69
2021/11/14 06:51:23;;;;;;;;;;;;;;;;;;2206281;59;1987;-69
2021/11/14 06:53:56;;;;;;;;;;;;;;;;;;2206290;59;1332;-69
2021/11/14 06:56:29;;;;;;;;;;;;;;;;;;2206574;58;1417;-69
2021/11/14 06:59:05;;;;;;;;;;;;;;;;;;2207906;59;1544;-69
2021/11/14 07:01:38;;;;;;;;;;;;;;;;;;2206517;59;1268;-69
2021/11/14 07:04:11;;;;;;;;;;;;;;;;;;2205803;59;1456;-69
2021/11/14 07:06:45;;;;;;;;;;;;;;;;;;2206529;59;1748;-70
2021/11/14 07:09:19;;;;;;;;;;;;;;;;;;2206634;59;1571;-69
2021/11/14 07:11:53;;;;;;;;;;;;;;;;;;2205421;59;1929;-69
2021/11/14 07:14:30;;;;;;;;;;;;;;;;;;2205677;59;1232;-70
2021/11/14 07:17:03;;;;;;;;;;;;;;;;;;2205118;59;1539;-69
2021/11/14 07:19:36;;;;;;;;;;;;;;;;;;2206643;59;1550;-69
2021/11/14 07:22:09;;;;;;;;;;;;;;;;;;2205862;59;1468;-69
2021/11/14 07:24:42;;;;;;;;;;;;;;;;;;2206336;59;1495;-70
2021/11/14 07:27:15;;;;;;;;;;;;;;;;;;2205647;59;1432;-69
2021/11/14 07:29:52;;;;;;;;;;;;;;;;;;2206102;59;1376;-69
2021/11/14 07:32:25;;;;;;;;;;;;;;;;;;2205730;59;1945;-69
2021/11/14 07:34:58;;;;;;;;;;;;;;;;;;2206269;59;1308;-69
2021/11/14 07:37:31;;;;;;;;;;;;;;;;;;2207514;59;1393;-70
2021/11/14 07:40:05;;;;;;;;;;;;;;;;;;2206238;59;1571;-69
2021/11/14 07:42:43;;;;;;;;;;;;;;;;;;2206891;59;1368;-69
2021/11/14 07:45:21;;;;;;;;;;;;;;;;;;2206228;59;1122;-69
2021/11/14 07:47:54;;;;;;;;;;;;;;;;;;2205654;59;1257;-69
2021/11/14 07:50:28;;;;;;;;;;;;;;;;;;2205656;59;1662;-69
2021/11/14 07:53:02;;;;;;;;;;;;;;;;;;2206191;59;2000;-69
2021/11/14 07:55:36;;;;;;;;;;;;;;;;;;2205891;59;1375;-69
2021/11/14 07:58:09;;;;;;;;;;;;;;;;;;2205815;59;1379;-69
2021/11/14 08:00:45;;;;;;;;;;;;;;;;;;2205875;59;1239;-69
2021/11/14 08:03:18;;;;;;;;;;;;;;;;;;2207239;58;1290;-70
2021/11/14 08:05:51;;;;;;;;;;;;;;;;;;2206123;59;1463;-69
2021/11/14 08:08:24;;;;;;;;;;;;;;;;;;2206234;58;1554;-69
2021/11/14 08:10:58;;;;;;;;;;;;;;;;;;2207214;59;1298;-69
2021/11/14 08:13:31;;;;;;;;;;;;;;;;;;2206023;59;1998;-69
2021/11/14 08:16:07;;;;;;;;;;;;;;;;;;2207286;58;2298;-69
2021/11/14 08:18:41;;;;;;;;;;;;;;;;;;2206025;58;1486;-68
2021/11/14 08:21:14;;;;;;;;;;;;;;;;;;2221215;53;3647;-69
2021/11/14 08:23:48;;;;;;;;;;;;;;;;;;2216153;58;1415;-69
2021/11/14 08:26:21;;;;;;;;;;;;;;;;;;2221469;58;1303;-69
2021/11/14 08:28:54;;;;;;;;;;;;;;;;;;2221236;58;1777;-69
2021/11/14 08:31:30;;;;;;;;;;;;;;;;;;2220886;58;1461;-70
2021/11/14 08:34:03;;;;;;;;;;;;;;;;;;2219624;58;1995;-68
2021/11/14 08:36:36;;;;;;;;;;;;;;;;;;2220785;58;1615;-67
2021/11/14 08:39:09;;;;;;;;;;;;;;;;;;2221682;58;1351;-70
2021/11/14 08:41:42;;;;;;;;;;;;;;;;;;2221750;58;1300;-69
2021/11/14 08:44:16;;;;;;;;;;;;;;;;;;2220875;58;1341;-69
2021/11/14 08:46:51;;;;;;;;;;;;;;;;;;2221843;58;1462;-69
2021/11/14 08:49:26;;;;;;;;;;;;;;;;;;2221839;58;1485;-70
2021/11/14 08:51:59;;;;;;;;;;;;;;;;;;2220902;58;1978;-69
2021/11/14 08:54:32;;;;;;;;;;;;;;;;;;2220294;58;1370;-70
2021/11/14 08:57:06;;;;;;;;;;;;;;;;;;2222095;58;1280;-70
2021/11/14 08:59:39;;;;;;;;;;;;;;;;;;2216059;59;1459;-69
2021/11/14 09:02:15;;;;;;;;;;;;;;;;;;2220789;58;1601;-69
2021/11/14 09:04:48;;;;;;;;;;;;;;;;;;2221679;58;1519;-70
2021/11/14 09:07:21;;;;;;;;;;;;;;;;;;2220592;58;1386;-70
2021/11/14 09:09:54;;;;;;;;;;;;;;;;;;2220249;58;1374;-69
2021/11/14 09:12:28;;;;;;;;;;;;;;;;;;2219573;58;2132;-68
2021/11/14 09:15:01;;;;;;;;;;;;;;;;;;2222324;58;1252;-69
2021/11/14 09:17:37;;;;;;;;;;;;;;;;;;2221798;58;1471;-69
2021/11/14 09:20:11;;;;;;;;;;;;;;;;;;2221020;58;1536;-70
2021/11/14 09:22:44;;;;;;;;;;;;;;;;;;2220732;58;1737;-69
2021/11/14 09:25:17;;;;;;;;;;;;;;;;;;2221257;58;1806;-69
2021/11/14 09:27:50;;;;;;;;;;;;;;;;;;2218216;58;1348;-69
2021/11/14 09:30:24;;;;;;;;;;;;;;;;;;2221114;58;1804;-69
2021/11/14 09:33:00;;;;;;;;;;;;;;;;;;2222118;58;1937;-69
2021/11/14 09:35:34;;;;;;;;;;;;;;;;;;2221050;58;1884;-69
2021/11/14 09:38:07;;;;;;;;;;;;;;;;;;2221360;59;1131;-69
2021/11/14 09:40:41;;;;;;;;;;;;;;;;;;2221059;66;1202;-69
2021/11/14 09:43:16;;;;;;;;;;;;;;;;;;2221280;58;1444;-69
2021/11/14 09:45:51;;;;;;;;;;;;;;;;;;2221280;58;1275;-69
2021/11/14 09:48:27;;;;;;;;;;;;;;;;;;2221276;66;1253;-69
2021/11/14 09:51:01;;;;;;;;;;;;;;;;;;2221287;58;1802;-69
2021/11/14 09:53:35;;;;;;;;;;;;;;;;;;2221258;66;1964;-69
2021/11/14 09:56:09;;;;;;;;;;;;;;;;;;2220521;58;1332;-69
2021/11/14 09:58:42;;;;;;;;;;;;;;;;;;2222763;58;1603;-69
2021/11/14 10:01:16;;;;;;;;;;;;;;;;;;2221840;59;1325;-69
2021/11/14 10:03:52;;;;;;;;;;;;;;;;;;2221732;58;1846;-69
2021/11/14 10:06:25;;;;;;;;;;;;;;;;;;2220992;58;1310;-69
2021/11/14 10:08:58;;;;;;;;;;;;;;;;;;2222067;66;1216;-69
2021/11/14 10:11:36;;;;;;;;;;;;;;;;;;2217934;66;1487;-69
2021/11/14 10:14:10;;;;;;;;;;;;;;;;;;2219878;58;1941;-68
2021/11/14 10:16:43;;;;;;;;;;;;;;;;;;2221675;58;1256;-69
2021/11/14 10:19:19;;;;;;;;;;;;;;;;;;2220875;58;1574;-69
2021/11/14 10:21:52;;;;;;;;;;;;;;;;;;2222015;58;1590;-69
2021/11/14 10:24:26;;;;;;;;;;;;;;;;;;2222368;58;1320;-69
2021/11/14 10:26:59;;;;;;;;;;;;;;;;;;2223105;59;1366;-69
2021/11/14 10:29:32;;;;;;;;;;;;;;;;;;2221289;66;1302;-69
2021/11/14 10:32:09;;;;;;;;;;;;;;;;;;2222729;66;1411;-69
2021/11/14 10:34:49;;;;;;;;;;;;;;;;;;2221237;66;1979;-69
2021/11/14 10:37:23;;;;;;;;;;;;;;;;;;2221061;58;1582;-67
2021/11/14 10:39:57;;;;;;;;;;;;;;;;;;2220215;58;1412;-67
2021/11/14 10:42:32;;;;;;;;;;;;;;;;;;2221222;58;2026;-67
2021/11/14 10:45:06;;;;;;;;;;;;;;;;;;2220010;58;1243;-69
2021/11/14 10:47:39;;;;;;;;;;;;;;;;;;2220844;58;1217;-69
2021/11/14 10:50:16;;;;;;;;;;;;;;;;;;2221630;58;1511;-69
2021/11/14 10:52:52;;;;;;;;;;;;;;;;;;2220370;58;1939;-69
2021/11/14 10:55:27;;;;;;;;;;;;;;;;;;2220770;58;2077;-69
2021/11/14 10:58:00;;;;;;;;;;;;;;;;;;2220908;58;1155;-69
2021/11/14 11:00:33;;;;;;;;;;;;;;;;;;2217460;58;2205;-69
2021/11/14 11:03:08;;;;;;;;;;;;;;;;;;2221245;58;1287;-69
2021/11/14 11:05:45;;;;;;;;;;;;;;;;;;2220251;58;1236;-67
2021/11/14 11:08:21;;;;;;;;;;;;;;;;;;2221117;58;1331;-67
2021/11/14 11:10:55;;;;;;;;;;;;;;;;;;2219767;58;2289;-67
2021/11/14 11:13:33;;;;;;;;;;;;;;;;;;2219267;58;1958;-67
2021/11/14 11:16:07;;;;;;;;;;;;;;;;;;2221110;58;1382;-67
2021/11/14 11:18:43;;;;;;;;;;;;;;;;;;2221428;58;1321;-68
2021/11/14 11:21:21;;;;;;;;;;;;;;;;;;2220630;58;1521;-67
2021/11/14 11:23:54;;;;;;;;;;;;;;;;;;2220566;58;1251;-67
2021/11/14 11:26:27;;;;;;;;;;;;;;;;;;2220993;58;1242;-67
2021/11/14 11:29:01;;;;;;;;;;;;;;;;;;2219348;58;1285;-67
2021/11/14 11:31:34;;;;;;;;;;;;;;;;;;2220393;58;1626;-67
2021/11/14 11:34:07;;;;;;;;;;;;;;;;;;2220450;58;1928;-66
2021/11/14 11:36:43;;;;;;;;;;;;;;;;;;2220267;58;1201;-67
2021/11/14 11:39:17;;;;;;;;;;;;;;;;;;2221423;58;2194;-67
2021/11/14 11:41:51;;;;;;;;;;;;;;;;;;2220840;58;2578;-67
2021/11/14 11:44:24;;;;;;;;;;;;;;;;;;2219831;58;1579;-67
2021/11/14 11:47:03;;;;;;;;;;;;;;;;;;2221370;59;1216;-67
2021/11/14 11:49:37;;;;;;;;;;;;;;;;;;2218845;58;1698;-67
2021/11/14 11:52:18;;;;;;;;;;;;;;;;;;2220556;58;1720;-67
2021/11/14 11:54:52;;;;;;;;;;;;;;;;;;2219050;66;1928;-67
2021/11/14 11:57:25;;;;;;;;;;;;;;;;;;2221216;58;1832;-67
2021/11/14 12:00:02;;;;;;;;;;;;;;;;;;2221654;58;1261;-68
2021/11/14 12:02:35;;;;;;;;;;;;;;;;;;2221355;59;1401;-68
2021/11/14 12:05:10;;;;;;;;;;;;;;;;;;2221201;66;1230;-67
2021/11/14 12:07:50;;;;;;;;;;;;;;;;;;2219265;61;1178;-68
2021/11/14 12:10:25;;;;;;;;;;;;;;;;;;2216062;59;2705;-67
2021/11/14 12:13:03;;;;;;;;;;;;;;;;;;2220301;58;2290;-67
2021/11/14 12:15:37;;;;;;;;;;;;;;;;;;2221551;58;2774;-67
2021/11/14 12:18:12;;;;;;;;;;;;;;;;;;2220124;58;2270;-67
2021/11/14 12:20:46;;;;;;;;;;;;;;;;;;2218041;58;1193;-67
2021/11/14 12:23:27;;;;;;;;;;;;;;;;;;2218561;58;1387;-68
2021/11/14 12:26:01;;;;;;;;;;;;;;;;;;2221695;58;1487;-68
2021/11/14 12:28:35;;;;;;;;;;;;;;;;;;2222639;58;1258;-68
2021/11/14 12:31:13;;;;;;;;;;;;;;;;;;2218542;58;1732;-67
2021/11/14 12:33:48;;;;;;;;;;;;;;;;;;2221163;58;1935;-67
2021/11/14 12:36:22;;;;;;;;;;;;;;;;;;2222744;58;1520;-68
2021/11/14 12:39:08;;;;;;;;;;;;;;;;;;2220193;58;1439;-67
2021/11/14 12:41:41;;;;;;;;;;;;;;;;;;2214381;58;1409;-68
2021/11/14 12:44:14;;;;;;;;;;;;;;;;;;2219295;58;1509;-67
2021/11/14 12:46:48;;;;;;;;;;;;;;;;;;2219813;58;2146;-68
2021/11/14 12:49:21;;;;;;;;;;;;;;;;;;2220296;58;1396;-68
2021/11/14 12:51:55;;;;;;;;;;;;;;;;;;2221705;58;1419;-68
2021/11/14 12:54:31;;;;;;;;;;;;;;;;;;2220526;58;2120;-68
2021/11/14 12:57:13;;;;;;;;;;;;;;;;;;2221932;58;1422;-67
2021/11/14 12:59:46;;;;;;;;;;;;;;;;;;2222958;58;2277;-67
2021/11/14 13:02:21;;;;;;;;;;;;;;;;;;2222062;58;1271;-67
2021/11/14 13:04:55;;;;;;;;;;;;;;;;;;2221708;58;2428;-68
2021/11/14 13:07:30;;;;;;;;;;;;;;;;;;2218800;58;2280;-68
2021/11/14 13:10:16;;;;;;;;;;;;;;;;;;2222752;58;1335;-68
2021/11/14 13:12:50;;;;;;;;;;;;;;;;;;2219805;58;2966;-67
2021/11/14 13:15:23;;;;;;;;;;;;;;;;;;2219304;58;2262;-68
2021/11/14 13:17:57;;;;;;;;;;;;;;;;;;2222287;58;1588;-68
2021/11/14 13:20:31;;;;;;;;;;;;;;;;;;2222307;58;1311;-68
2021/11/14 13:23:04;;;;;;;;;;;;;;;;;;2222742;58;1775;-68
2021/11/14 13:25:40;;;;;;;;;;;;;;;;;;2223030;58;1399;-67
2021/11/14 13:28:13;;;;;;;;;;;;;;;;;;2222323;58;1724;-67
2021/11/14 13:30:48;;;;;;;;;;;;;;;;;;2222877;58;1236;-68
2021/11/14 13:33:21;;;;;;;;;;;;;;;;;;2221977;58;1976;-67
2021/11/14 13:35:56;;;;;;;;;;;;;;;;;;2223172;58;1512;-67
2021/11/14 13:38:29;;;;;;;;;;;;;;;;;;2222101;58;2313;-68
2021/11/14 13:41:05;;;;;;;;;;;;;;;;;;2220863;58;1434;-68
2021/11/14 13:43:38;;;;;;;;;;;;;;;;;;2221323;58;2153;-67
2021/11/14 13:46:11;;;;;;;;;;;;;;;;;;2218729;58;2318;-67
2021/11/14 13:48:44;;;;;;;;;;;;;;;;;;2221380;58;1457;-68
2021/11/14 13:51:18;;;;;;;;;;;;;;;;;;2221818;58;1393;-68
2021/11/14 13:53:51;;;;;;;;;;;;;;;;;;2220773;58;1923;-68
2021/11/14 13:56:27;;;;;;;;;;;;;;;;;;2222366;58;1378;-68
2021/11/14 13:59:00;;;;;;;;;;;;;;;;;;2221594;58;1564;-68
2021/11/14 14:01:33;;;;;;;;;;;;;;;;;;2221438;58;1461;-68
2021/11/14 14:04:06;;;;;;;;;;;;;;;;;;2223111;58;1338;-68
2021/11/14 14:06:39;;;;;;;;;;;;;;;;;;2222409;58;1777;-68
2021/11/14 14:09:17;;;;;;;;;;;;;;;;;;2220974;58;2065;-68
2021/11/14 14:11:53;;;;;;;;;;;;;;;;;;2221414;66;2733;-68
2021/11/14 14:14:28;;;;;;;;;;;;;;;;;;2220593;59;2267;-68
2021/11/14 14:17:01;;;;;;;;;;;;;;;;;;2220779;66;1207;-68
2021/11/14 14:19:34;;;;;;;;;;;;;;;;;;2220656;58;1540;-67
2021/11/14 14:22:08;;;;;;;;;;;;;;;;;;2223258;58;1397;-68
2021/11/14 14:24:45;;;;;;;;;;;;;;;;;;2222847;58;1390;-68
2021/11/14 14:27:26;;;;;;;;;;;;;;;;;;2223099;58;1681;-68
2021/11/14 14:30:00;;;;;;;;;;;;;;;;;;2222563;58;1523;-68
2021/11/14 14:32:33;;;;;;;;;;;;;;;;;;2221307;58;1437;-68
2021/11/14 14:35:11;;;;;;;;;;;;;;;;;;2221364;58;1932;-68
2021/11/14 14:37:46;;;;;;;;;;;;;;;;;;2222713;58;1301;-68
2021/11/14 14:40:31;;;;;;;;;;;;;;;;;;2220318;58;1715;-68
2021/11/14 14:43:10;;;;;;;;;;;;;;;;;;2221604;58;1366;-68
2021/11/14 14:45:44;;;;;;;;;;;;;;;;;;2220287;58;1268;-68
2021/11/14 14:48:17;;;;;;;;;;;;;;;;;;2220463;66;1161;-68
2021/11/14 14:50:55;;;;;;;;;;;;;;;;;;2220227;59;1249;-68
2021/11/14 14:53:30;;;;;;;;;;;;;;;;;;2220399;66;1051;-68
2021/11/14 14:56:13;;;;;;;;;;;;;;;;;;2220377;66;1929;-68
2021/11/14 14:59:00;;;;;;;;;;;;;;;;;;2220971;58;1823;-68
2021/11/14 15:01:34;;;;;;;;;;;;;;;;;;2219518;58;1690;-68
2021/11/14 15:04:15;;;;;;;;;;;;;;;;;;2220498;58;1797;-68
2021/11/14 15:06:48;;;;;;;;;;;;;;;;;;2221293;58;1767;-68
2021/11/14 15:09:24;;;;;;;;;;;;;;;;;;2216910;58;1411;-68
2021/11/14 15:11:58;;;;;;;;;;;;;;;;;;2221170;58;1246;-68
2021/11/14 15:14:39;;;;;;;;;;;;;;;;;;2219449;58;2724;-68
2021/11/14 15:17:16;;;;;;;;;;;;;;;;;;2220492;58;1469;-68
2021/11/14 15:19:56;;;;;;;;;;;;;;;;;;2221686;58;1579;-68
2021/11/14 15:22:31;;;;;;;;;;;;;;;;;;2220293;58;1390;-68
2021/11/14 15:25:08;;;;;;;;;;;;;;;;;;2219876;58;1567;-68
2021/11/14 15:27:43;;;;;;;;;;;;;;;;;;2222369;58;1388;-68
2021/11/14 15:30:20;;;;;;;;;;;;;;;;;;2221279;58;1360;-68
2021/11/14 15:32:54;;;;;;;;;;;;;;;;;;2222900;58;1286;-68
2021/11/14 15:35:27;;;;;;;;;;;;;;;;;;2221481;58;2307;-68
2021/11/14 15:38:00;;;;;;;;;;;;;;;;;;2221329;58;1237;-68
2021/11/14 15:40:34;;;;;;;;;;;;;;;;;;2221747;58;1459;-68
2021/11/14 15:43:08;;;;;;;;;;;;;;;;;;2221774;58;1504;-68
2021/11/14 15:45:44;;;;;;;;;;;;;;;;;;2220663;58;1188;-68
2021/11/14 15:48:18;;;;;;;;;;;;;;;;;;2220062;58;1411;-67
2021/11/14 15:50:52;;;;;;;;;;;;;;;;;;2219478;59;1984;-68
2021/11/14 15:53:26;;;;;;;;;;;;;;;;;;2219920;58;1244;-68
2021/11/14 15:56:01;;;;;;;;;;;;;;;;;;2219619;58;1917;-67
2021/11/14 15:58:34;;;;;;;;;;;;;;;;;;2219031;58;1574;-70
2021/11/14 16:01:10;;;;;;;;;;;;;;;;;;2220112;58;1390;-70
2021/11/14 16:03:43;;;;;;;;;;;;;;;;;;2221095;58;1277;-67
2021/11/14 16:06:16;;;;;;;;;;;;;;;;;;2220680;58;1257;-70
2021/11/14 16:08:49;;;;;;;;;;;;;;;;;;2221638;58;1534;-70
2021/11/14 16:11:22;;;;;;;;;;;;;;;;;;2221393;58;1316;-70
2021/11/14 16:13:55;;;;;;;;;;;;;;;;;;2221043;58;1526;-68
2021/11/14 16:16:32;;;;;;;;;;;;;;;;;;2220627;58;1929;-67
2021/11/14 16:19:06;;;;;;;;;;;;;;;;;;2222393;58;1457;-68
2021/11/14 16:21:39;;;;;;;;;;;;;;;;;;2220675;58;1722;-70
2021/11/14 16:24:12;;;;;;;;;;;;;;;;;;2220984;58;1704;-70
2021/11/14 16:26:45;;;;;;;;;;;;;;;;;;2221698;58;1185;-70
2021/11/14 16:29:20;;;;;;;;;;;;;;;;;;2221459;58;1445;-70
2021/11/14 16:31:57;;;;;;;;;;;;;;;;;;2218408;58;1588;-67
2021/11/14 16:34:30;;;;;;;;;;;;;;;;;;2219746;58;1932;-68
2021/11/14 16:37:04;;;;;;;;;;;;;;;;;;2220429;58;1424;-68
2021/11/14 16:39:38;;;;;;;;;;;;;;;;;;2219636;58;1492;-70
2021/11/14 16:42:12;;;;;;;;;;;;;;;;;;2216058;58;2558;-70
2021/11/14 16:44:46;;;;;;;;;;;;;;;;;;2209639;58;2344;-70
2021/11/14 16:47:22;;;;;;;;;;;;;;;;;;2218936;58;1665;-70
2021/11/14 16:49:55;;;;;;;;;;;;;;;;;;2219974;58;1532;-70
2021/11/14 16:52:28;;;;;;;;;;;;;;;;;;2218151;58;1679;-70
2021/11/14 16:55:02;;;;;;;;;;;;;;;;;;2219349;58;2037;-70
2021/11/14 16:57:37;;;;;;;;;;;;;;;;;;2219857;58;1919;-70
2021/11/14 17:00:12;;;;;;;;;;;;;;;;;;2218946;58;1738;-70
2021/11/14 17:02:48;;;;;;;;;;;;;;;;;;2219772;58;1804;-70
2021/11/14 17:05:21;;;;;;;;;;;;;;;;;;2219546;58;1143;-70
2021/11/14 17:07:54;;;;;;;;;;;;;;;;;;2219307;58;2483;-70
2021/11/14 17:10:28;;;;;;;;;;;;;;;;;;2220004;58;1704;-70
2021/11/14 17:13:01;;;;;;;;;;;;;;;;;;2218783;58;2016;-70
2021/11/14 17:15:35;;;;;;;;;;;;;;;;;;2219389;58;2760;-70
2021/11/14 17:18:11;;;;;;;;;;;;;;;;;;2222050;58;1676;-70
2021/11/14 17:20:44;;;;;;;;;;;;;;;;;;2219809;58;1697;-70
2021/11/14 17:23:18;;;;;;;;;;;;;;;;;;2213973;59;1590;-70
2021/11/14 17:25:51;;;;;;;;;;;;;;;;;;2214869;58;2167;-70
2021/11/14 17:28:24;;;;;;;;;;;;;;;;;;2219539;58;1349;-70
2021/11/14 17:30:57;;;;;;;;;;;;;;;;;;2218298;58;1713;-70
2021/11/14 17:33:35;;;;;;;;;;;;;;;;;;2220665;58;1241;-70
2021/11/14 17:36:08;;;;;;;;;;;;;;;;;;2219616;58;1984;-70
2021/11/14 17:38:41;;;;;;;;;;;;;;;;;;2221287;58;1227;-70
2021/11/14 17:41:15;;;;;;;;;;;;;;;;;;2219603;58;2456;-70
2021/11/14 17:43:48;;;;;;;;;;;;;;;;;;2218827;58;2583;-70
2021/11/14 17:46:21;;;;;;;;;;;;;;;;;;2219112;58;2361;-70
2021/11/14 17:48:57;;;;;;;;;;;;;;;;;;2220560;58;1211;-70
2021/11/14 17:51:31;;;;;;;;;;;;;;;;;;2215474;58;1895;-70
2021/11/14 17:54:04;;;;;;;;;;;;;;;;;;2220263;58;1467;-70
2021/11/14 17:56:37;;;;;;;;;;;;;;;;;;2221498;58;1987;-70